sensor_id;sensor_type;location;lat;lon;timestamp;pressure;altitude;pressure_sealevel;temperature;humidity
2681;BME280;1350;42.134;24.708;2022-10-16T00:00:40;100120.81;;;12.88;100.00
2681;BME280;1350;42.134;24.708;2022-10-16T00:03:08;100114.78;;;13.01;100.00
2681;BME280;1350;42.134;24.708;2022-10-16T00:05:38;100122.44;;;12.90;100.00
2681;BME280;1350;42.134;24.708;2022-10-16T00:08:06;100114.22;;;12.62;100.00
2681;BME280;1350;42.134;24.708;2022-10-16T00:10:33;100122.63;;;12.70;100.00
2681;BME280;1350;42.134;24.708;2022-10-16T00:13:02;100124.00;;;12.94;100.00
2681;BME280;1350;42.134;24.708;2022-10-16T00:15:29;100120.50;;;12.77;100.00
2681;BME280;1350;42.134;24.708;2022-10-16T00:17:55;100127.47;;;12.79;100.00
2681;BME280;1350;42.134;24.708;2022-10-16T00:20:22;100123.72;;;12.83;100.00
2681;BME280;1350;42.134;24.708;2022-10-16T00:22:49;100134.44;;;12.82;100.00
2681;BME280;1350;42.134;24.708;2022-10-16T00:25:16;100131.16;;;12.43;100.00
2681;BME280;1350;42.134;24.708;2022-10-16T00:27:42;100129.94;;;12.50;100.00
2681;BME280;1350;42.134;24.708;2022-10-16T00:30:11;100125.84;;;12.43;100.00
2681;BME280;1350;42.134;24.708;2022-10-16T00:32:37;100127.13;;;12.53;100.00
2681;BME280;1350;42.134;24.708;2022-10-16T00:35:05;100123.25;;;12.58;100.00
2681;BME280;1350;42.134;24.708;2022-10-16T00:37:32;100123.09;;;12.61;100.00
2681;BME280;1350;42.134;24.708;2022-10-16T00:39:58;100124.63;;;12.50;100.00
2681;BME280;1350;42.134;24.708;2022-10-16T00:42:25;100136.41;;;12.44;100.00
2681;BME280;1350;42.134;24.708;2022-10-16T00:44:54;100131.31;;;12.40;100.00
2681;BME280;1350;42.134;24.708;2022-10-16T00:47:27;100132.13;;;12.42;100.00
2681;BME280;1350;42.134;24.708;2022-10-16T00:49:58;100133.41;;;12.33;100.00
2681;BME280;1350;42.134;24.708;2022-10-16T00:52:26;100140.88;;;12.27;100.00
2681;BME280;1350;42.134;24.708;2022-10-16T00:54:53;100149.59;;;12.29;100.00
2681;BME280;1350;42.134;24.708;2022-10-16T00:57:21;100150.56;;;12.28;100.00
2681;BME280;1350;42.134;24.708;2022-10-16T00:59:48;100150.19;;;12.00;100.00
2681;BME280;1350;42.134;24.708;2022-10-16T01:02:16;100151.75;;;11.86;100.00
2681;BME280;1350;42.134;24.708;2022-10-16T01:04:48;100159.94;;;11.82;100.00
2681;BME280;1350;42.134;24.708;2022-10-16T01:07:29;100162.38;;;11.86;100.00
2681;BME280;1350;42.134;24.708;2022-10-16T01:10:07;100169.03;;;11.95;100.00
2681;BME280;1350;42.134;24.708;2022-10-16T01:12:41;100179.31;;;11.84;100.00
2681;BME280;1350;42.134;24.708;2022-10-16T01:15:13;100187.06;;;11.51;100.00
2681;BME280;1350;42.134;24.708;2022-10-16T01:17:48;100174.53;;;11.35;100.00
2681;BME280;1350;42.134;24.708;2022-10-16T01:20:26;100180.28;;;11.44;100.00
2681;BME280;1350;42.134;24.708;2022-10-16T01:23:05;100171.75;;;11.56;100.00
2681;BME280;1350;42.134;24.708;2022-10-16T01:25:51;100185.09;;;11.55;100.00
2681;BME280;1350;42.134;24.708;2022-10-16T01:28:28;100176.91;;;11.59;100.00
2681;BME280;1350;42.134;24.708;2022-10-16T01:30:58;100178.94;;;11.54;100.00
2681;BME280;1350;42.134;24.708;2022-10-16T01:33:30;100187.53;;;11.59;100.00
2681;BME280;1350;42.134;24.708;2022-10-16T01:36:05;100190.84;;;11.46;100.00
2681;BME280;1350;42.134;24.708;2022-10-16T01:38:36;100192.50;;;11.30;100.00
2681;BME280;1350;42.134;24.708;2022-10-16T01:41:07;100194.28;;;11.29;100.00
2681;BME280;1350;42.134;24.708;2022-10-16T01:43:39;100193.69;;;11.23;100.00
2681;BME280;1350;42.134;24.708;2022-10-16T01:46:08;100194.31;;;11.09;100.00
2681;BME280;1350;42.134;24.708;2022-10-16T01:48:37;100199.34;;;10.95;100.00
2681;BME280;1350;42.134;24.708;2022-10-16T01:51:06;100202.75;;;10.99;100.00
2681;BME280;1350;42.134;24.708;2022-10-16T01:53:35;100210.69;;;11.19;100.00
2681;BME280;1350;42.134;24.708;2022-10-16T01:56:05;100210.97;;;10.93;100.00
2681;BME280;1350;42.134;24.708;2022-10-16T01:58:37;100205.47;;;10.77;100.00
2681;BME280;1350;42.134;24.708;2022-10-16T02:01:07;100204.09;;;10.47;100.00
2681;BME280;1350;42.134;24.708;2022-10-16T02:03:37;100207.50;;;10.51;100.00
2681;BME280;1350;42.134;24.708;2022-10-16T02:06:07;100200.03;;;10.60;100.00
2681;BME280;1350;42.134;24.708;2022-10-16T02:08:35;100202.94;;;10.74;100.00
2681;BME280;1350;42.134;24.708;2022-10-16T02:11:02;100206.13;;;10.62;100.00
2681;BME280;1350;42.134;24.708;2022-10-16T02:13:32;100198.81;;;10.67;100.00
2681;BME280;1350;42.134;24.708;2022-10-16T02:16:01;100201.50;;;10.46;100.00
2681;BME280;1350;42.134;24.708;2022-10-16T02:18:28;100211.50;;;10.61;100.00
2681;BME280;1350;42.134;24.708;2022-10-16T02:20:59;100216.88;;;10.59;100.00
2681;BME280;1350;42.134;24.708;2022-10-16T02:23:31;100213.69;;;10.71;100.00
2681;BME280;1350;42.134;24.708;2022-10-16T02:26:03;100207.38;;;10.74;100.00
2681;BME280;1350;42.134;24.708;2022-10-16T02:28:37;100216.47;;;10.68;100.00
2681;BME280;1350;42.134;24.708;2022-10-16T02:31:10;100222.88;;;10.63;100.00
2681;BME280;1350;42.134;24.708;2022-10-16T02:33:39;100224.78;;;10.39;100.00
2681;BME280;1350;42.134;24.708;2022-10-16T02:36:07;100223.53;;;10.48;100.00
2681;BME280;1350;42.134;24.708;2022-10-16T02:38:35;100220.13;;;10.44;100.00
2681;BME280;1350;42.134;24.708;2022-10-16T02:41:04;100228.38;;;10.58;100.00
2681;BME280;1350;42.134;24.708;2022-10-16T02:43:32;100226.34;;;10.65;100.00
2681;BME280;1350;42.134;24.708;2022-10-16T02:45:59;100230.06;;;10.61;100.00
2681;BME280;1350;42.134;24.708;2022-10-16T02:48:27;100217.06;;;10.55;100.00
2681;BME280;1350;42.134;24.708;2022-10-16T02:50:54;100223.22;;;10.55;100.00
2681;BME280;1350;42.134;24.708;2022-10-16T02:53:22;100222.69;;;10.67;100.00
2681;BME280;1350;42.134;24.708;2022-10-16T02:55:49;100234.63;;;10.57;100.00
2681;BME280;1350;42.134;24.708;2022-10-16T02:58:16;100235.22;;;10.64;100.00
2681;BME280;1350;42.134;24.708;2022-10-16T03:00:42;100239.72;;;10.62;100.00
2681;BME280;1350;42.134;24.708;2022-10-16T03:03:09;100240.56;;;10.42;100.00
2681;BME280;1350;42.134;24.708;2022-10-16T03:05:37;100245.03;;;10.62;100.00
2681;BME280;1350;42.134;24.708;2022-10-16T03:08:04;100241.69;;;10.57;100.00
2681;BME280;1350;42.134;24.708;2022-10-16T03:10:31;100242.75;;;10.53;100.00
2681;BME280;1350;42.134;24.708;2022-10-16T03:12:58;100238.91;;;10.60;100.00
2681;BME280;1350;42.134;24.708;2022-10-16T03:15:25;100243.44;;;10.58;100.00
2681;BME280;1350;42.134;24.708;2022-10-16T03:17:53;100249.03;;;10.50;100.00
2681;BME280;1350;42.134;24.708;2022-10-16T03:20:20;100260.53;;;10.51;100.00
2681;BME280;1350;42.134;24.708;2022-10-16T03:22:48;100253.72;;;10.65;100.00
2681;BME280;1350;42.134;24.708;2022-10-16T03:25:15;100250.22;;;10.65;100.00
2681;BME280;1350;42.134;24.708;2022-10-16T03:27:41;100255.84;;;10.57;100.00
2681;BME280;1350;42.134;24.708;2022-10-16T03:30:09;100265.63;;;10.55;100.00
2681;BME280;1350;42.134;24.708;2022-10-16T03:32:36;100266.00;;;10.46;100.00
2681;BME280;1350;42.134;24.708;2022-10-16T03:35:03;100263.47;;;10.43;100.00
2681;BME280;1350;42.134;24.708;2022-10-16T03:37:30;100260.13;;;10.60;100.00
2681;BME280;1350;42.134;24.708;2022-10-16T03:39:58;100265.38;;;10.61;100.00
2681;BME280;1350;42.134;24.708;2022-10-16T03:42:25;100266.63;;;10.53;100.00
2681;BME280;1350;42.134;24.708;2022-10-16T03:44:52;100273.19;;;10.64;100.00
2681;BME280;1350;42.134;24.708;2022-10-16T03:47:19;100275.06;;;10.62;100.00
2681;BME280;1350;42.134;24.708;2022-10-16T03:49:48;100273.78;;;10.51;100.00
2681;BME280;1350;42.134;24.708;2022-10-16T03:52:15;100269.28;;;10.53;100.00
2681;BME280;1350;42.134;24.708;2022-10-16T03:54:42;100271.31;;;10.46;100.00
2681;BME280;1350;42.134;24.708;2022-10-16T03:57:10;100281.78;;;10.49;100.00
2681;BME280;1350;42.134;24.708;2022-10-16T03:59:36;100280.19;;;10.45;100.00
2681;BME280;1350;42.134;24.708;2022-10-16T04:02:03;100284.38;;;10.51;100.00
2681;BME280;1350;42.134;24.708;2022-10-16T04:04:30;100281.59;;;10.32;100.00
2681;BME280;1350;42.134;24.708;2022-10-16T04:06:57;100282.53;;;10.31;100.00
2681;BME280;1350;42.134;24.708;2022-10-16T04:09:23;100280.75;;;10.32;100.00
2681;BME280;1350;42.134;24.708;2022-10-16T04:11:50;100280.56;;;10.36;100.00
2681;BME280;1350;42.134;24.708;2022-10-16T04:14:18;100274.47;;;10.34;100.00
2681;BME280;1350;42.134;24.708;2022-10-16T04:16:45;100276.16;;;10.13;100.00
2681;BME280;1350;42.134;24.708;2022-10-16T04:19:12;100275.09;;;10.19;100.00
2681;BME280;1350;42.134;24.708;2022-10-16T04:21:39;100276.00;;;10.18;100.00
2681;BME280;1350;42.134;24.708;2022-10-16T04:24:06;100279.44;;;10.20;100.00
2681;BME280;1350;42.134;24.708;2022-10-16T04:26:33;100272.31;;;10.22;100.00
2681;BME280;1350;42.134;24.708;2022-10-16T04:28:59;100273.59;;;10.12;100.00
2681;BME280;1350;42.134;24.708;2022-10-16T04:31:28;100275.69;;;10.02;100.00
2681;BME280;1350;42.134;24.708;2022-10-16T04:33:54;100287.41;;;9.97;100.00
2681;BME280;1350;42.134;24.708;2022-10-16T04:36:21;100286.94;;;9.63;100.00
2681;BME280;1350;42.134;24.708;2022-10-16T04:38:48;100289.56;;;9.40;100.00
2681;BME280;1350;42.134;24.708;2022-10-16T04:41:15;100285.50;;;9.54;100.00
2681;BME280;1350;42.134;24.708;2022-10-16T04:43:41;100280.69;;;9.65;100.00
2681;BME280;1350;42.134;24.708;2022-10-16T04:46:08;100288.22;;;9.76;100.00
2681;BME280;1350;42.134;24.708;2022-10-16T04:48:37;100281.41;;;9.69;100.00
2681;BME280;1350;42.134;24.708;2022-10-16T04:51:04;100284.69;;;9.75;100.00
2681;BME280;1350;42.134;24.708;2022-10-16T04:53:30;100300.66;;;9.74;100.00
2681;BME280;1350;42.134;24.708;2022-10-16T04:55:57;100294.03;;;9.85;100.00
2681;BME280;1350;42.134;24.708;2022-10-16T04:58:24;100304.47;;;9.90;100.00
2681;BME280;1350;42.134;24.708;2022-10-16T05:00:51;100314.69;;;9.99;100.00
2681;BME280;1350;42.134;24.708;2022-10-16T05:03:17;100309.53;;;9.96;100.00
2681;BME280;1350;42.134;24.708;2022-10-16T05:05:46;100306.75;;;9.99;100.00
2681;BME280;1350;42.134;24.708;2022-10-16T05:08:14;100311.59;;;10.11;100.00
2681;BME280;1350;42.134;24.708;2022-10-16T05:10:42;100312.91;;;10.22;100.00
2681;BME280;1350;42.134;24.708;2022-10-16T05:13:09;100312.13;;;10.64;100.00
2681;BME280;1350;42.134;24.708;2022-10-16T05:15:35;100318.81;;;11.54;100.00
2681;BME280;1350;42.134;24.708;2022-10-16T05:18:02;100317.06;;;12.12;100.00
2681;BME280;1350;42.134;24.708;2022-10-16T05:20:29;100323.03;;;12.71;100.00
2681;BME280;1350;42.134;24.708;2022-10-16T05:22:58;100333.31;;;13.31;100.00
2681;BME280;1350;42.134;24.708;2022-10-16T05:25:24;100324.31;;;13.83;100.00
2681;BME280;1350;42.134;24.708;2022-10-16T05:27:51;100336.81;;;14.31;100.00
2681;BME280;1350;42.134;24.708;2022-10-16T05:30:18;100333.19;;;14.78;100.00
2681;BME280;1350;42.134;24.708;2022-10-16T05:32:47;100334.72;;;15.27;95.67
2681;BME280;1350;42.134;24.708;2022-10-16T05:35:14;100343.91;;;15.67;92.22
2681;BME280;1350;42.134;24.708;2022-10-16T05:37:42;100340.69;;;16.04;88.49
2681;BME280;1350;42.134;24.708;2022-10-16T05:40:11;100344.97;;;16.49;84.42
2681;BME280;1350;42.134;24.708;2022-10-16T05:42:38;100349.47;;;16.89;82.02
2681;BME280;1350;42.134;24.708;2022-10-16T05:45:06;100354.13;;;17.39;78.26
2681;BME280;1350;42.134;24.708;2022-10-16T05:47:33;100350.78;;;17.87;75.70
2681;BME280;1350;42.134;24.708;2022-10-16T05:50:00;100359.13;;;18.32;72.06
2681;BME280;1350;42.134;24.708;2022-10-16T05:52:27;100369.50;;;18.62;68.67
2681;BME280;1350;42.134;24.708;2022-10-16T05:54:53;100365.78;;;18.88;66.86
2681;BME280;1350;42.134;24.708;2022-10-16T05:57:22;100360.91;;;18.93;65.72
2681;BME280;1350;42.134;24.708;2022-10-16T05:59:48;100364.19;;;18.86;64.80
2681;BME280;1350;42.134;24.708;2022-10-16T06:02:15;100359.94;;;18.71;64.05
2681;BME280;1350;42.134;24.708;2022-10-16T06:04:42;100367.63;;;18.14;65.50
2681;BME280;1350;42.134;24.708;2022-10-16T06:07:09;100371.91;;;17.66;69.04
2681;BME280;1350;42.134;24.708;2022-10-16T06:09:36;100379.00;;;17.80;69.13
2681;BME280;1350;42.134;24.708;2022-10-16T06:12:05;100383.31;;;18.20;68.25
2681;BME280;1350;42.134;24.708;2022-10-16T06:14:33;100375.84;;;18.74;66.13
2681;BME280;1350;42.134;24.708;2022-10-16T06:17:03;100375.88;;;18.97;63.83
2681;BME280;1350;42.134;24.708;2022-10-16T06:19:29;100378.63;;;19.32;62.12
2681;BME280;1350;42.134;24.708;2022-10-16T06:21:56;100373.34;;;19.54;61.21
2681;BME280;1350;42.134;24.708;2022-10-16T06:24:24;100372.00;;;19.94;59.73
2681;BME280;1350;42.134;24.708;2022-10-16T06:26:51;100377.06;;;20.43;58.34
2681;BME280;1350;42.134;24.708;2022-10-16T06:29:17;100382.28;;;20.88;57.17
2681;BME280;1350;42.134;24.708;2022-10-16T06:31:46;100382.75;;;21.47;54.81
2681;BME280;1350;42.134;24.708;2022-10-16T06:34:13;100394.00;;;21.84;53.76
2681;BME280;1350;42.134;24.708;2022-10-16T06:36:40;100389.16;;;21.98;52.70
2681;BME280;1350;42.134;24.708;2022-10-16T06:39:07;100397.06;;;22.11;52.13
2681;BME280;1350;42.134;24.708;2022-10-16T06:41:34;100398.91;;;22.61;51.27
2681;BME280;1350;42.134;24.708;2022-10-16T06:44:00;100388.63;;;23.04;50.37
2681;BME280;1350;42.134;24.708;2022-10-16T06:46:27;100395.69;;;23.25;49.08
2681;BME280;1350;42.134;24.708;2022-10-16T06:48:56;100394.94;;;23.23;49.19
2681;BME280;1350;42.134;24.708;2022-10-16T06:51:24;100399.38;;;23.34;49.11
2681;BME280;1350;42.134;24.708;2022-10-16T06:53:52;100404.25;;;23.50;47.96
2681;BME280;1350;42.134;24.708;2022-10-16T06:56:21;100400.25;;;23.73;48.04
2681;BME280;1350;42.134;24.708;2022-10-16T06:58:48;100403.38;;;24.16;47.14
2681;BME280;1350;42.134;24.708;2022-10-16T07:01:17;100408.97;;;24.51;46.51
2681;BME280;1350;42.134;24.708;2022-10-16T07:03:45;100414.97;;;24.54;46.16
2681;BME280;1350;42.134;24.708;2022-10-16T07:06:15;100402.25;;;24.92;45.40
2681;BME280;1350;42.134;24.708;2022-10-16T07:08:44;100410.84;;;25.14;44.89
2681;BME280;1350;42.134;24.708;2022-10-16T07:11:13;100414.38;;;25.24;44.65
2681;BME280;1350;42.134;24.708;2022-10-16T07:13:41;100424.25;;;25.60;44.04
2681;BME280;1350;42.134;24.708;2022-10-16T07:16:10;100414.59;;;25.75;43.49
2681;BME280;1350;42.134;24.708;2022-10-16T07:18:37;100425.38;;;26.02;43.10
2681;BME280;1350;42.134;24.708;2022-10-16T07:21:06;100422.00;;;26.26;43.21
2681;BME280;1350;42.134;24.708;2022-10-16T07:23:34;100422.03;;;26.60;43.76
2681;BME280;1350;42.134;24.708;2022-10-16T07:26:02;100419.78;;;26.55;45.17
2681;BME280;1350;42.134;24.708;2022-10-16T07:28:29;100413.91;;;26.42;43.63
2681;BME280;1350;42.134;24.708;2022-10-16T07:31:00;100417.00;;;26.65;46.31
2681;BME280;1350;42.134;24.708;2022-10-16T07:33:27;100415.41;;;26.62;45.81
2681;BME280;1350;42.134;24.708;2022-10-16T07:35:54;100412.97;;;26.77;46.83
2681;BME280;1350;42.134;24.708;2022-10-16T07:38:22;100412.31;;;26.57;43.89
2681;BME280;1350;42.134;24.708;2022-10-16T07:40:56;100417.31;;;26.95;45.21
2681;BME280;1350;42.134;24.708;2022-10-16T07:43:23;100418.31;;;26.86;43.86
2681;BME280;1350;42.134;24.708;2022-10-16T07:45:50;100414.69;;;25.91;42.79
2681;BME280;1350;42.134;24.708;2022-10-16T07:48:17;100411.22;;;26.16;44.48
2681;BME280;1350;42.134;24.708;2022-10-16T07:50:45;100407.19;;;26.54;43.92
2681;BME280;1350;42.134;24.708;2022-10-16T07:53:12;100413.16;;;26.83;43.67
2681;BME280;1350;42.134;24.708;2022-10-16T07:55:39;100409.22;;;26.78;43.03
2681;BME280;1350;42.134;24.708;2022-10-16T07:58:08;100412.19;;;26.92;43.74
2681;BME280;1350;42.134;24.708;2022-10-16T08:00:36;100414.44;;;26.63;43.61
2681;BME280;1350;42.134;24.708;2022-10-16T08:03:03;100416.94;;;26.90;42.17
2681;BME280;1350;42.134;24.708;2022-10-16T08:05:32;100410.75;;;27.22;41.35
2681;BME280;1350;42.134;24.708;2022-10-16T08:07:59;100413.56;;;27.38;42.16
2681;BME280;1350;42.134;24.708;2022-10-16T08:10:28;100408.03;;;27.14;41.67
2681;BME280;1350;42.134;24.708;2022-10-16T08:12:55;100411.34;;;26.92;41.51
2681;BME280;1350;42.134;24.708;2022-10-16T08:15:23;100411.91;;;27.11;42.24
2681;BME280;1350;42.134;24.708;2022-10-16T08:17:57;100404.38;;;26.97;44.46
2681;BME280;1350;42.134;24.708;2022-10-16T08:20:25;100411.56;;;27.14;44.38
2681;BME280;1350;42.134;24.708;2022-10-16T08:22:52;100407.78;;;26.99;45.51
2681;BME280;1350;42.134;24.708;2022-10-16T08:25:19;100403.88;;;27.02;45.01
2681;BME280;1350;42.134;24.708;2022-10-16T08:27:46;100404.84;;;26.85;44.63
2681;BME280;1350;42.134;24.708;2022-10-16T08:30:14;100406.28;;;26.45;43.90
2681;BME280;1350;42.134;24.708;2022-10-16T08:32:42;100403.72;;;25.75;46.50
2681;BME280;1350;42.134;24.708;2022-10-16T08:35:09;100405.47;;;26.02;45.84
2681;BME280;1350;42.134;24.708;2022-10-16T08:37:36;100393.47;;;24.80;49.14
2681;BME280;1350;42.134;24.708;2022-10-16T08:40:05;100408.06;;;24.69;47.89
2681;BME280;1350;42.134;24.708;2022-10-16T08:42:44;100398.19;;;25.05;48.81
2681;BME280;1350;42.134;24.708;2022-10-16T08:45:33;100399.56;;;24.92;47.78
2681;BME280;1350;42.134;24.708;2022-10-16T08:48:10;100402.97;;;24.94;47.81
2681;BME280;1350;42.134;24.708;2022-10-16T08:50:41;100403.75;;;25.31;46.22
2681;BME280;1350;42.134;24.708;2022-10-16T08:53:14;100402.53;;;25.16;45.90
2681;BME280;1350;42.134;24.708;2022-10-16T08:55:44;100408.06;;;25.51;45.48
2681;BME280;1350;42.134;24.708;2022-10-16T08:58:14;100402.44;;;25.87;47.56
2681;BME280;1350;42.134;24.708;2022-10-16T09:00:43;100399.81;;;26.38;44.76
2681;BME280;1350;42.134;24.708;2022-10-16T09:03:17;100400.06;;;26.53;44.52
2681;BME280;1350;42.134;24.708;2022-10-16T09:06:06;100403.44;;;26.81;41.47
2681;BME280;1350;42.134;24.708;2022-10-16T09:08:45;100401.75;;;26.54;41.77
2681;BME280;1350;42.134;24.708;2022-10-16T09:11:19;100403.28;;;26.23;41.27
2681;BME280;1350;42.134;24.708;2022-10-16T09:13:58;100399.34;;;26.51;41.32
2681;BME280;1350;42.134;24.708;2022-10-16T09:16:32;100404.16;;;26.06;40.82
2681;BME280;1350;42.134;24.708;2022-10-16T09:19:09;100405.63;;;26.00;42.79
2681;BME280;1350;42.134;24.708;2022-10-16T09:21:41;100397.91;;;25.96;42.67
2681;BME280;1350;42.134;24.708;2022-10-16T09:24:13;100390.16;;;25.83;42.19
2681;BME280;1350;42.134;24.708;2022-10-16T09:26:40;100398.88;;;25.87;42.15
2681;BME280;1350;42.134;24.708;2022-10-16T09:29:10;100401.28;;;26.07;40.45
2681;BME280;1350;42.134;24.708;2022-10-16T09:31:38;100394.97;;;26.07;41.00
2681;BME280;1350;42.134;24.708;2022-10-16T09:34:08;100393.50;;;25.95;41.77
2681;BME280;1350;42.134;24.708;2022-10-16T09:36:45;100387.63;;;25.99;41.25
2681;BME280;1350;42.134;24.708;2022-10-16T09:39:12;100394.91;;;25.99;41.53
2681;BME280;1350;42.134;24.708;2022-10-16T09:41:40;100389.88;;;26.04;41.17
2681;BME280;1350;42.134;24.708;2022-10-16T09:44:18;100392.50;;;26.65;40.55
2681;BME280;1350;42.134;24.708;2022-10-16T09:46:45;100388.34;;;26.94;39.21
2681;BME280;1350;42.134;24.708;2022-10-16T09:49:21;100379.19;;;26.95;37.75
2681;BME280;1350;42.134;24.708;2022-10-16T09:51:49;100378.38;;;26.43;38.35
2681;BME280;1350;42.134;24.708;2022-10-16T09:54:17;100373.28;;;26.15;38.18
2681;BME280;1350;42.134;24.708;2022-10-16T09:56:45;100372.97;;;26.18;37.76
2681;BME280;1350;42.134;24.708;2022-10-16T09:59:15;100372.69;;;26.55;36.99
2681;BME280;1350;42.134;24.708;2022-10-16T10:01:45;100371.56;;;26.65;37.30
2681;BME280;1350;42.134;24.708;2022-10-16T10:04:13;100362.91;;;26.70;37.85
2681;BME280;1350;42.134;24.708;2022-10-16T10:06:44;100361.28;;;26.93;37.50
2681;BME280;1350;42.134;24.708;2022-10-16T10:09:20;100358.91;;;26.90;36.07
2681;BME280;1350;42.134;24.708;2022-10-16T10:11:52;100348.69;;;26.84;36.46
2681;BME280;1350;42.134;24.708;2022-10-16T10:14:23;100351.28;;;26.93;36.32
2681;BME280;1350;42.134;24.708;2022-10-16T10:16:52;100350.50;;;27.17;36.20
2681;BME280;1350;42.134;24.708;2022-10-16T10:19:20;100343.28;;;27.08;36.26
2681;BME280;1350;42.134;24.708;2022-10-16T10:21:49;100342.88;;;27.36;36.29
2681;BME280;1350;42.134;24.708;2022-10-16T10:24:18;100339.72;;;26.99;34.70
2681;BME280;1350;42.134;24.708;2022-10-16T10:27:00;100340.78;;;27.22;34.81
2681;BME280;1350;42.134;24.708;2022-10-16T10:29:41;100338.13;;;27.38;34.40
2681;BME280;1350;42.134;24.708;2022-10-16T10:32:21;100331.09;;;27.20;34.38
2681;BME280;1350;42.134;24.708;2022-10-16T10:35:02;100333.56;;;26.56;34.05
2681;BME280;1350;42.134;24.708;2022-10-16T10:37:46;100336.75;;;26.51;34.04
2681;BME280;1350;42.134;24.708;2022-10-16T10:40:28;100328.50;;;26.27;34.40
2681;BME280;1350;42.134;24.708;2022-10-16T10:43:00;100325.78;;;26.27;34.45
2681;BME280;1350;42.134;24.708;2022-10-16T10:45:38;100327.03;;;26.40;34.55
2681;BME280;1350;42.134;24.708;2022-10-16T10:48:26;100332.03;;;25.59;34.76
2681;BME280;1350;42.134;24.708;2022-10-16T10:50:58;100319.91;;;24.46;36.07
2681;BME280;1350;42.134;24.708;2022-10-16T10:53:37;100327.03;;;23.36;37.12
2681;BME280;1350;42.134;24.708;2022-10-16T10:56:16;100322.47;;;23.37;37.65
2681;BME280;1350;42.134;24.708;2022-10-16T10:59:08;100315.88;;;24.23;37.13
2681;BME280;1350;42.134;24.708;2022-10-16T11:01:50;100308.88;;;24.30;36.75
2681;BME280;1350;42.134;24.708;2022-10-16T11:04:50;100310.81;;;24.47;36.71
2681;BME280;1350;42.134;24.708;2022-10-16T11:07:24;100311.53;;;24.03;37.04
2681;BME280;1350;42.134;24.708;2022-10-16T11:09:58;100307.13;;;23.93;37.00
2681;BME280;1350;42.134;24.708;2022-10-16T11:12:31;100305.88;;;23.97;37.08
2681;BME280;1350;42.134;24.708;2022-10-16T11:15:04;100310.56;;;24.31;36.21
2681;BME280;1350;42.134;24.708;2022-10-16T11:17:40;100304.41;;;24.75;36.66
2681;BME280;1350;42.134;24.708;2022-10-16T11:20:14;100307.63;;;24.79;36.19
2681;BME280;1350;42.134;24.708;2022-10-16T11:22:48;100303.97;;;25.15;35.54
2681;BME280;1350;42.134;24.708;2022-10-16T11:25:20;100302.53;;;25.38;35.06
2681;BME280;1350;42.134;24.708;2022-10-16T11:27:51;100298.91;;;25.20;36.06
2681;BME280;1350;42.134;24.708;2022-10-16T11:30:21;100298.84;;;25.47;35.41
2681;BME280;1350;42.134;24.708;2022-10-16T11:33:02;100294.56;;;25.62;35.18
2681;BME280;1350;42.134;24.708;2022-10-16T11:35:39;100289.53;;;25.15;34.90
2681;BME280;1350;42.134;24.708;2022-10-16T11:38:12;100285.53;;;24.20;35.82
2681;BME280;1350;42.134;24.708;2022-10-16T11:40:43;100277.44;;;24.64;35.27
2681;BME280;1350;42.134;24.708;2022-10-16T11:43:15;100277.81;;;24.97;35.17
2681;BME280;1350;42.134;24.708;2022-10-16T11:45:45;100281.78;;;25.20;35.33
2681;BME280;1350;42.134;24.708;2022-10-16T11:48:20;100290.88;;;25.46;35.33
2681;BME280;1350;42.134;24.708;2022-10-16T11:50:52;100293.34;;;25.39;35.55
2681;BME280;1350;42.134;24.708;2022-10-16T11:53:25;100287.34;;;25.53;34.99
2681;BME280;1350;42.134;24.708;2022-10-16T11:55:56;100295.81;;;24.80;35.27
2681;BME280;1350;42.134;24.708;2022-10-16T11:58:27;100291.81;;;24.47;35.40
2681;BME280;1350;42.134;24.708;2022-10-16T12:01:01;100283.44;;;24.68;35.84
2681;BME280;1350;42.134;24.708;2022-10-16T12:03:38;100284.22;;;24.78;35.72
2681;BME280;1350;42.134;24.708;2022-10-16T12:06:16;100289.13;;;24.65;36.73
2681;BME280;1350;42.134;24.708;2022-10-16T12:08:49;100283.97;;;24.71;36.19
2681;BME280;1350;42.134;24.708;2022-10-16T12:11:24;100286.09;;;24.77;36.32
2681;BME280;1350;42.134;24.708;2022-10-16T12:14:16;100290.44;;;24.88;36.14
2681;BME280;1350;42.134;24.708;2022-10-16T12:16:52;100286.56;;;24.63;35.52
2681;BME280;1350;42.134;24.708;2022-10-16T12:19:20;100295.56;;;24.73;35.81
2681;BME280;1350;42.134;24.708;2022-10-16T12:21:48;100292.69;;;24.92;35.47
2681;BME280;1350;42.134;24.708;2022-10-16T12:24:31;100279.59;;;23.32;36.76
2681;BME280;1350;42.134;24.708;2022-10-16T12:27:00;100296.09;;;23.19;37.27
2681;BME280;1350;42.134;24.708;2022-10-16T12:29:33;100287.56;;;23.34;37.44
2681;BME280;1350;42.134;24.708;2022-10-16T12:32:01;100289.69;;;23.59;37.11
2681;BME280;1350;42.134;24.708;2022-10-16T12:34:32;100292.13;;;23.33;37.25
2681;BME280;1350;42.134;24.708;2022-10-16T12:37:10;100292.97;;;23.43;37.14
2681;BME280;1350;42.134;24.708;2022-10-16T12:39:38;100289.41;;;23.52;37.09
2681;BME280;1350;42.134;24.708;2022-10-16T12:42:21;100278.94;;;23.76;36.79
2681;BME280;1350;42.134;24.708;2022-10-16T12:44:49;100290.22;;;23.14;37.17
2681;BME280;1350;42.134;24.708;2022-10-16T12:47:23;100289.38;;;22.95;38.14
2681;BME280;1350;42.134;24.708;2022-10-16T12:50:01;100298.47;;;22.75;37.98
2681;BME280;1350;42.134;24.708;2022-10-16T12:52:35;100291.66;;;22.99;38.11
2681;BME280;1350;42.134;24.708;2022-10-16T12:55:04;100294.09;;;23.31;37.88
2681;BME280;1350;42.134;24.708;2022-10-16T12:57:42;100297.66;;;23.51;37.63
2681;BME280;1350;42.134;24.708;2022-10-16T13:00:21;100296.63;;;22.94;38.31
2681;BME280;1350;42.134;24.708;2022-10-16T13:05:48;100294.72;;;22.27;39.08
2681;BME280;1350;42.134;24.708;2022-10-16T13:08:30;100299.16;;;22.37;39.09
2681;BME280;1350;42.134;24.708;2022-10-16T13:11:08;100301.16;;;22.35;39.47
2681;BME280;1350;42.134;24.708;2022-10-16T13:14:01;100299.16;;;22.37;39.58